createdAt,value
2022-12-11T00:00:09.280Z,5.27
2022-12-11T00:02:35.881Z,6.33
2022-12-11T00:05:02.506Z,6.10
2022-12-11T00:07:29.115Z,5.57
2022-12-11T00:09:55.771Z,6.37
2022-12-11T00:12:22.527Z,6.60
2022-12-11T00:14:49.151Z,12.63
2022-12-11T00:17:15.768Z,6.80
2022-12-11T00:19:42.358Z,7.07
2022-12-11T00:22:09.019Z,6.70
2022-12-11T00:24:35.596Z,7.60
2022-12-11T00:27:02.315Z,6.83
2022-12-11T00:29:28.915Z,6.33
2022-12-11T00:31:55.624Z,7.77
2022-12-11T00:34:22.375Z,7.70
2022-12-11T00:36:49.217Z,6.70
2022-12-11T00:39:15.959Z,6.97
2022-12-11T00:41:42.597Z,16.10
2022-12-11T00:44:09.340Z,8.30
2022-12-11T00:46:36.048Z,7.33
2022-12-11T00:49:02.692Z,6.63
2022-12-11T00:51:29.340Z,7.33
2022-12-11T00:53:56.175Z,6.13
2022-12-11T00:56:24.455Z,6.63
2022-12-11T00:58:51.331Z,5.93
2022-12-11T01:01:22.456Z,7.00
2022-12-11T01:03:49.512Z,7.07
2022-12-11T01:06:21.967Z,6.57
2022-12-11T01:09:09.676Z,6.83
2022-12-11T01:11:36.704Z,7.87
2022-12-11T01:14:03.876Z,6.57
2022-12-11T01:16:30.549Z,7.60
2022-12-11T01:18:57.618Z,7.50
2022-12-11T01:21:24.302Z,7.57
2022-12-11T01:23:51.673Z,7.53
2022-12-11T01:26:18.684Z,6.90
2022-12-11T01:28:45.563Z,6.27
2022-12-11T01:31:14.045Z,7.17
2022-12-11T01:33:41.056Z,6.33
2022-12-11T01:36:13.934Z,7.17
2022-12-11T01:38:40.983Z,6.37
2022-12-11T01:41:08.625Z,7.33
2022-12-11T01:43:35.789Z,7.27
2022-12-11T01:46:02.524Z,6.20
2022-12-11T01:48:31.503Z,6.70
2022-12-11T01:51:04.924Z,6.80
2022-12-11T01:53:34.872Z,7.87
2022-12-11T01:56:03.032Z,7.57
2022-12-11T01:58:34.992Z,7.43
2022-12-11T02:01:02.465Z,7.87
2022-12-11T02:03:29.177Z,8.20
2022-12-11T02:06:00.401Z,8.23
2022-12-11T02:08:27.217Z,7.07
2022-12-11T02:11:10.800Z,7.87
2022-12-11T02:13:57.347Z,8.07
2022-12-11T02:16:54.633Z,7.93
2022-12-11T02:19:59.244Z,7.60
2022-12-11T02:22:29.101Z,7.77
2022-12-11T02:25:05.308Z,7.30
2022-12-11T02:27:41.754Z,6.93
2022-12-11T02:30:10.802Z,8.90
2022-12-11T02:32:39.812Z,7.67
2022-12-11T02:35:18.883Z,7.40
2022-12-11T02:37:48.546Z,8.00
2022-12-11T02:40:21.973Z,8.77
2022-12-11T02:42:50.506Z,8.97
2022-12-11T02:45:19.245Z,7.50
2022-12-11T02:47:48.799Z,7.33
2022-12-11T02:50:19.516Z,7.63
2022-12-11T02:52:49.570Z,7.77
2022-12-11T02:55:17.038Z,7.53
2022-12-11T02:58:02.304Z,8.33
2022-12-11T03:00:28.961Z,8.80
2022-12-11T03:02:56.604Z,7.70
2022-12-11T03:05:23.403Z,8.20
2022-12-11T03:07:50.492Z,7.73
2022-12-11T03:10:18.984Z,7.63
2022-12-11T03:12:53.391Z,7.40
2022-12-11T03:15:23.888Z,7.60
2022-12-11T03:18:11.998Z,7.97
2022-12-11T03:20:45.529Z,7.57
2022-12-11T03:23:39.376Z,7.07
2022-12-11T03:26:11.396Z,8.40
2022-12-11T03:28:46.997Z,6.63
2022-12-11T03:31:21.952Z,7.43
2022-12-11T03:33:53.512Z,7.70
2022-12-11T03:36:27.965Z,7.47
2022-12-11T03:39:07.713Z,6.90
2022-12-11T03:41:37.672Z,7.03
2022-12-11T03:44:04.704Z,6.87
2022-12-11T03:46:36.578Z,6.90
2022-12-11T03:49:09.112Z,7.50
2022-12-11T03:51:36.477Z,7.60
2022-12-11T03:54:03.396Z,7.10
2022-12-11T03:56:34.141Z,7.37
2022-12-11T03:59:00.749Z,7.87
2022-12-11T04:01:27.933Z,7.73
2022-12-11T04:03:54.621Z,7.53
2022-12-11T04:06:21.244Z,7.70
2022-12-11T04:08:47.873Z,8.63
2022-12-11T04:11:33.077Z,8.30
2022-12-11T04:14:18.498Z,8.90
2022-12-11T04:16:45.140Z,7.23
2022-12-11T04:19:30.433Z,8.70
2022-12-11T04:22:15.849Z,8.30
2022-12-11T04:24:42.733Z,8.67
2022-12-11T04:27:09.605Z,9.10
2022-12-11T04:29:36.326Z,8.27
2022-12-11T04:32:02.978Z,8.87
2022-12-11T04:34:30.002Z,9.30
2022-12-11T04:36:56.601Z,8.30
2022-12-11T04:39:23.186Z,9.20
2022-12-11T04:41:49.825Z,7.67
2022-12-11T04:44:16.605Z,9.40
2022-12-11T04:46:43.236Z,8.20
2022-12-11T04:49:10.111Z,10.47
2022-12-11T04:51:36.746Z,9.67
2022-12-11T04:54:03.394Z,9.83
2022-12-11T04:56:29.988Z,9.97
2022-12-11T04:58:56.610Z,9.80
2022-12-11T05:01:23.574Z,9.60
2022-12-11T05:03:51.443Z,8.67
2022-12-11T05:06:18.070Z,8.80
2022-12-11T05:08:45.503Z,10.70
2022-12-11T05:11:14.780Z,9.50
2022-12-11T05:13:41.824Z,10.90
2022-12-11T05:16:09.941Z,10.10
2022-12-11T05:18:36.706Z,10.10
2022-12-11T05:21:06.516Z,10.17
2022-12-11T05:23:33.491Z,8.37
2022-12-11T05:26:07.022Z,8.77
2022-12-11T05:28:36.432Z,8.80
2022-12-11T05:31:07.124Z,8.53
2022-12-11T05:33:34.410Z,9.70
2022-12-11T05:36:01.357Z,10.60
2022-12-11T05:38:27.986Z,8.90
2022-12-11T05:40:59.509Z,9.60
2022-12-11T05:43:28.135Z,8.63
2022-12-11T05:45:55.025Z,9.00
2022-12-11T05:48:22.212Z,9.70
2022-12-11T05:50:59.984Z,9.80
2022-12-11T05:53:27.299Z,9.30
2022-12-11T05:55:54.058Z,7.60
2022-12-11T05:58:21.310Z,9.27
2022-12-11T06:00:48.291Z,9.03
2022-12-11T06:03:14.962Z,8.57
2022-12-11T06:05:42.537Z,8.93
2022-12-11T06:08:09.479Z,9.70
2022-12-11T06:10:36.196Z,9.10
2022-12-11T06:13:03.124Z,9.10
2022-12-11T06:15:29.857Z,8.53
2022-12-11T06:17:56.477Z,10.13
2022-12-11T06:20:23.066Z,8.83
2022-12-11T06:22:49.662Z,9.00
2022-12-11T06:25:16.295Z,8.80
2022-12-11T06:27:42.927Z,7.87
2022-12-11T06:30:10.098Z,7.83
2022-12-11T06:32:36.822Z,8.10
2022-12-11T06:35:03.579Z,8.20
2022-12-11T06:37:30.197Z,8.50
2022-12-11T06:39:56.772Z,9.10
2022-12-11T06:42:23.379Z,8.70
2022-12-11T06:44:49.946Z,9.97
2022-12-11T06:47:16.524Z,9.10
2022-12-11T06:49:43.114Z,7.57
2022-12-11T06:52:12.502Z,9.47
2022-12-11T06:54:43.243Z,9.53
2022-12-11T06:57:10.267Z,8.83
2022-12-11T06:59:37.118Z,10.13
2022-12-11T07:02:04.479Z,8.53
2022-12-11T07:04:31.396Z,9.03
2022-12-11T07:06:58.082Z,7.73
2022-12-11T07:09:24.874Z,8.90
2022-12-11T07:11:52.696Z,8.70
2022-12-11T07:14:20.332Z,7.80
2022-12-11T07:16:46.976Z,9.13
2022-12-11T07:19:13.600Z,8.73
2022-12-11T07:21:40.239Z,8.67
2022-12-11T07:24:07.695Z,8.27
2022-12-11T07:26:34.598Z,8.83
2022-12-11T07:29:01.490Z,10.70
2022-12-11T07:31:29.754Z,9.37
2022-12-11T07:33:58.642Z,9.10
2022-12-11T07:36:26.493Z,8.67
2022-12-11T07:38:53.392Z,8.07
2022-12-11T07:41:20.132Z,8.27
2022-12-11T07:43:47.579Z,10.13
2022-12-11T07:46:20.429Z,9.73
2022-12-11T07:48:48.173Z,7.87
2022-12-11T07:51:27.497Z,9.70
2022-12-11T07:54:18.168Z,10.40
2022-12-11T07:56:51.199Z,10.20
2022-12-11T07:59:20.960Z,8.67
2022-12-11T08:01:47.666Z,9.40
2022-12-11T08:04:15.686Z,8.87
2022-12-11T08:06:43.159Z,10.47
2022-12-11T08:09:17.494Z,8.97
2022-12-11T08:11:51.690Z,10.47
2022-12-11T08:14:19.538Z,10.07
2022-12-11T08:16:46.350Z,8.23
2022-12-11T08:19:13.816Z,9.90
2022-12-11T08:21:40.893Z,9.17
2022-12-11T08:24:08.955Z,9.93
2022-12-11T08:26:35.985Z,8.13
2022-12-11T08:29:02.790Z,9.77
2022-12-11T08:31:29.985Z,10.10
2022-12-11T08:33:57.320Z,10.23
2022-12-11T08:36:24.975Z,9.37
2022-12-11T08:38:52.364Z,9.83
2022-12-11T08:41:28.180Z,9.50
2022-12-11T08:43:56.396Z,10.57
2022-12-11T08:46:25.499Z,10.17
2022-12-11T08:48:52.677Z,10.27
2022-12-11T08:51:22.718Z,11.33
2022-12-11T08:53:51.072Z,9.37
2022-12-11T08:56:20.220Z,10.33
2022-12-11T08:58:47.700Z,9.17
2022-12-11T09:01:21.484Z,10.63
2022-12-11T09:03:49.070Z,10.27
2022-12-11T09:06:18.461Z,10.03
2022-12-11T09:08:51.979Z,9.50
2022-12-11T09:11:23.389Z,9.07
2022-12-11T09:13:50.218Z,9.27
2022-12-11T09:16:19.035Z,9.07
2022-12-11T09:18:47.483Z,9.00
2022-12-11T09:21:17.169Z,9.93
2022-12-11T09:23:43.968Z,9.30
2022-12-11T09:26:15.013Z,9.47
2022-12-11T09:28:46.286Z,9.97
2022-12-11T09:31:23.583Z,9.63
2022-12-11T09:33:52.029Z,8.40
2022-12-11T09:36:19.081Z,9.13
2022-12-11T09:38:46.239Z,8.47
2022-12-11T09:41:22.082Z,8.80
2022-12-11T09:44:19.982Z,8.53
2022-12-11T09:46:47.748Z,7.60
2022-12-11T09:49:27.340Z,8.40
2022-12-11T09:52:18.823Z,8.80
2022-12-11T09:54:57.415Z,8.50
2022-12-11T09:57:30.661Z,8.03
2022-12-11T10:00:30.292Z,8.20
2022-12-11T10:03:11.064Z,8.57
2022-12-11T10:05:58.386Z,8.50
2022-12-11T10:08:47.714Z,9.10
2022-12-11T10:11:33.519Z,7.83
2022-12-11T10:14:19.036Z,8.77
2022-12-11T10:16:48.703Z,6.97
2022-12-11T10:19:31.416Z,7.77
2022-12-11T10:22:00.915Z,7.53
2022-12-11T10:27:38.167Z,7.90
2022-12-11T10:30:28.404Z,7.27
2022-12-11T10:33:20.734Z,7.77
2022-12-11T10:35:54.887Z,7.30
2022-12-11T10:38:27.575Z,7.80
2022-12-11T10:41:46.945Z,7.50
2022-12-11T10:44:25.649Z,7.63
2022-12-11T10:47:12.556Z,8.20
2022-12-11T10:49:43.853Z,8.10
2022-12-11T10:52:19.683Z,7.53
2022-12-11T10:54:49.120Z,7.63
2022-12-11T10:57:16.186Z,7.63
2022-12-11T10:59:48.751Z,7.07
2022-12-11T11:02:40.135Z,8.07
2022-12-11T11:05:17.621Z,8.23
2022-12-11T11:07:44.315Z,7.77
2022-12-11T11:10:10.991Z,8.13
2022-12-11T11:12:41.047Z,7.17
2022-12-11T11:15:17.649Z,8.07
2022-12-11T11:17:55.826Z,8.37
2022-12-11T11:20:25.865Z,8.47
2022-12-11T11:23:00.289Z,7.17
2022-12-11T11:25:29.738Z,7.87
2022-12-11T11:27:59.869Z,7.87
2022-12-11T11:30:33.130Z,8.07
2022-12-11T11:33:20.945Z,8.40
2022-12-11T11:35:54.746Z,7.73
2022-12-11T11:38:24.932Z,8.67
2022-12-11T11:41:05.603Z,8.60
2022-12-11T11:43:52.912Z,7.90
2022-12-11T11:46:38.343Z,8.83
2022-12-11T11:49:08.037Z,8.13
2022-12-11T11:51:41.581Z,8.70
2022-12-11T11:54:35.504Z,8.40
2022-12-11T11:57:13.710Z,8.40
2022-12-11T11:59:47.153Z,6.97
2022-12-11T12:02:16.602Z,7.13
2022-12-11T12:04:44.925Z,7.53
2022-12-11T12:07:27.845Z,8.03
2022-12-11T12:10:00.452Z,6.90
2022-12-11T12:12:41.428Z,7.70
2022-12-11T12:15:26.997Z,8.17
2022-12-11T12:18:28.676Z,8.50
2022-12-11T12:21:26.208Z,7.70
2022-12-11T12:24:28.731Z,7.47
2022-12-11T12:27:01.939Z,9.70
2022-12-11T12:29:31.876Z,11.40
2022-12-11T12:32:16.200Z,8.13
2022-12-11T12:35:19.444Z,8.40
2022-12-11T12:38:13.927Z,7.90
2022-12-11T12:41:02.472Z,7.10
2022-12-11T12:43:42.429Z,7.93
2022-12-11T12:46:28.859Z,7.70
2022-12-11T12:48:58.596Z,7.70
2022-12-11T12:51:26.216Z,7.67
2022-12-11T12:54:03.897Z,7.50
2022-12-11T12:56:33.926Z,6.93
2022-12-11T12:59:00.575Z,8.60
2022-12-11T13:01:29.933Z,7.60
2022-12-11T13:03:59.811Z,8.10
2022-12-11T13:06:44.103Z,8.10
2022-12-11T13:09:28.721Z,8.40
2022-12-11T13:11:57.975Z,8.60
2022-12-11T13:14:33.638Z,8.90
2022-12-11T13:17:36.604Z,8.47
2022-12-11T13:20:18.449Z,9.27
2022-12-11T13:23:07.999Z,9.23
2022-12-11T13:25:49.458Z,8.40
2022-12-11T13:28:48.161Z,8.63
2022-12-11T13:31:14.744Z,8.90
2022-12-11T13:33:50.740Z,9.30
2022-12-11T13:36:24.363Z,8.60
2022-12-11T13:39:05.324Z,9.10
2022-12-11T13:41:36.501Z,7.83
2022-12-11T13:44:04.985Z,9.27
2022-12-11T13:46:36.795Z,9.70
2022-12-11T13:49:06.879Z,9.17
2022-12-11T13:51:36.092Z,9.50
2022-12-11T13:54:20.814Z,8.60
2022-12-11T13:56:55.509Z,8.50
2022-12-11T13:59:29.404Z,8.00
2022-12-11T14:01:59.990Z,9.00
2022-12-11T14:04:28.270Z,8.00
2022-12-11T14:06:56.669Z,7.53
2022-12-11T14:09:26.214Z,7.30
2022-12-11T14:11:56.915Z,8.13
2022-12-11T14:14:38.580Z,8.57
2022-12-11T14:17:05.312Z,7.67
2022-12-11T14:19:31.981Z,8.10
2022-12-11T14:22:02.016Z,7.90
2022-12-11T14:24:30.190Z,7.73
2022-12-11T14:26:57.968Z,7.60
2022-12-11T14:29:31.145Z,7.60
2022-12-11T14:32:05.448Z,7.47
2022-12-11T14:34:39.205Z,7.07
2022-12-11T14:37:07.654Z,8.30
2022-12-11T14:39:44.604Z,9.03
2022-12-11T14:42:15.871Z,6.70
2022-12-11T14:44:58.500Z,7.80
2022-12-11T14:47:29.047Z,8.70
2022-12-11T14:50:03.798Z,7.60
2022-12-11T14:52:38.431Z,7.77
2022-12-11T14:55:25.170Z,8.70
2022-12-11T14:57:56.200Z,9.30
2022-12-11T15:00:30.691Z,8.90
2022-12-11T15:03:17.357Z,9.63
2022-12-11T15:05:53.013Z,7.83
2022-12-11T15:08:28.933Z,8.90
2022-12-11T15:11:14.824Z,7.13
2022-12-11T15:13:53.575Z,7.60
2022-12-11T15:16:22.754Z,7.60
2022-12-11T15:18:52.203Z,9.10
2022-12-11T15:21:27.419Z,8.60
2022-12-11T15:23:59.988Z,8.00
2022-12-11T15:26:46.825Z,8.67
2022-12-11T15:29:33.731Z,8.60
2022-12-11T15:32:08.065Z,8.27
2022-12-11T15:34:55.788Z,8.80
2022-12-11T15:37:25.807Z,9.60
2022-12-11T15:39:54.084Z,9.20
2022-12-11T15:42:36.967Z,8.00
2022-12-11T15:45:07.077Z,7.33
2022-12-11T15:47:33.860Z,8.70
2022-12-11T15:50:07.478Z,9.13
2022-12-11T15:52:34.547Z,8.60
2022-12-11T15:55:01.226Z,8.67
2022-12-11T15:57:27.900Z,8.10
2022-12-11T15:59:55.444Z,8.60
2022-12-11T16:02:24.145Z,8.27
2022-12-11T16:04:50.762Z,8.37
2022-12-11T16:07:20.699Z,7.80
2022-12-11T16:09:47.683Z,9.70
2022-12-11T16:12:15.245Z,9.60
2022-12-11T16:14:43.179Z,9.93
2022-12-11T16:17:11.119Z,9.10
2022-12-11T16:19:37.743Z,9.60
2022-12-11T16:22:05.489Z,11.03
2022-12-11T16:24:33.173Z,8.30
2022-12-11T16:26:59.767Z,10.27
2022-12-11T16:29:26.484Z,9.43
2022-12-11T16:31:53.106Z,9.50
2022-12-11T16:34:24.126Z,10.37
2022-12-11T16:36:50.785Z,9.83
2022-12-11T16:39:17.557Z,10.23
2022-12-11T16:41:44.139Z,11.53
2022-12-11T16:44:10.725Z,10.30
2022-12-11T16:46:37.786Z,10.40
2022-12-11T16:49:04.854Z,10.40
2022-12-11T16:51:31.495Z,11.27
2022-12-11T16:53:58.177Z,12.07
2022-12-11T16:56:25.387Z,11.00
2022-12-11T16:58:52.045Z,11.07
2022-12-11T17:01:19.011Z,10.90
2022-12-11T17:03:45.721Z,10.07
2022-12-11T17:06:15.100Z,9.27
2022-12-11T17:08:42.789Z,9.60
2022-12-11T17:11:12.589Z,9.77
2022-12-11T17:13:39.851Z,11.60
2022-12-11T17:16:08.526Z,10.40
2022-12-11T17:18:35.228Z,10.07
2022-12-11T17:21:13.683Z,10.57
2022-12-11T17:23:40.988Z,10.73
2022-12-11T17:26:10.554Z,10.93
2022-12-11T17:28:38.031Z,11.60
2022-12-11T17:31:07.074Z,10.70
2022-12-11T17:33:33.841Z,10.30
2022-12-11T17:36:05.583Z,11.57
2022-12-11T17:38:32.647Z,10.27
2022-12-11T17:40:59.277Z,10.70
2022-12-11T17:43:26.377Z,10.33
2022-12-11T17:45:53.215Z,11.97
2022-12-11T17:48:22.387Z,10.80
2022-12-11T17:50:50.409Z,10.20
2022-12-11T17:53:18.899Z,10.80
2022-12-11T17:55:46.634Z,10.77
2022-12-11T17:58:16.684Z,10.37
2022-12-11T18:00:45.810Z,10.87
2022-12-11T18:03:12.705Z,12.07
2022-12-11T18:05:46.910Z,11.97
2022-12-11T18:08:19.507Z,12.80
2022-12-11T18:10:46.309Z,20.20
2022-12-11T18:13:13.530Z,13.63
2022-12-11T18:15:40.415Z,18.40
2022-12-11T18:18:07.919Z,13.60
2022-12-11T18:20:35.421Z,13.00
2022-12-11T18:23:02.296Z,14.50
2022-12-11T18:25:29.111Z,15.17
2022-12-11T18:27:56.026Z,13.83
2022-12-11T18:30:24.222Z,12.73
2022-12-11T18:32:51.156Z,13.67
2022-12-11T18:35:18.411Z,12.97
2022-12-11T18:37:45.374Z,13.00
2022-12-11T18:40:12.409Z,13.30
2022-12-11T18:42:39.050Z,13.13
2022-12-11T18:45:06.913Z,12.67
2022-12-11T18:47:33.716Z,14.80
2022-12-11T18:50:07.216Z,13.40
2022-12-11T18:52:34.742Z,14.00
2022-12-11T18:55:01.505Z,14.37
2022-12-11T18:57:28.139Z,15.20
2022-12-11T18:59:55.361Z,15.47
2022-12-11T19:02:22.788Z,13.60
2022-12-11T19:04:49.549Z,14.70
2022-12-11T19:07:16.385Z,13.67
2022-12-11T19:09:47.857Z,15.60
2022-12-11T19:12:15.339Z,15.43
2022-12-11T19:14:42.009Z,15.20
2022-12-11T19:17:08.682Z,16.87
2022-12-11T19:19:35.941Z,15.90
2022-12-11T19:22:02.826Z,14.97
2022-12-11T19:24:29.902Z,15.87
2022-12-11T19:26:56.896Z,16.10
2022-12-11T19:29:27.300Z,18.03
2022-12-11T19:31:55.568Z,17.30
2022-12-11T19:34:22.760Z,16.80
2022-12-11T19:36:49.902Z,16.67
2022-12-11T19:39:16.685Z,15.80
2022-12-11T19:41:43.772Z,17.60
2022-12-11T19:44:10.782Z,15.23
2022-12-11T19:46:37.828Z,16.97
2022-12-11T19:49:05.212Z,15.50
2022-12-11T19:51:38.555Z,14.90
2022-12-11T19:54:07.354Z,13.50
2022-12-11T19:56:35.313Z,14.43
2022-12-11T19:59:03.911Z,13.60
2022-12-11T20:01:34.069Z,15.37
2022-12-11T20:04:03.810Z,15.57
2022-12-11T20:06:32.670Z,14.00
2022-12-11T20:09:00.036Z,14.30
2022-12-11T20:11:27.164Z,13.37
2022-12-11T20:13:55.585Z,13.97
2022-12-11T20:16:39.531Z,15.00
2022-12-11T20:19:09.752Z,14.23
2022-12-11T20:21:36.442Z,14.20
2022-12-11T20:24:03.269Z,14.07
2022-12-11T20:26:32.413Z,12.50
2022-12-11T20:28:59.228Z,13.20
2022-12-11T20:31:26.327Z,14.87
2022-12-11T20:33:55.632Z,12.43
2022-12-11T20:36:23.474Z,13.60
2022-12-11T20:38:51.213Z,14.63
2022-12-11T20:41:21.233Z,14.10
2022-12-11T20:43:53.204Z,13.40
2022-12-11T20:46:21.912Z,13.97
2022-12-11T20:48:49.043Z,14.83
2022-12-11T20:51:25.218Z,13.00
2022-12-11T20:53:58.199Z,14.30
2022-12-11T20:56:29.966Z,13.43
2022-12-11T20:58:57.896Z,13.70
2022-12-11T21:01:26.564Z,14.20
2022-12-11T21:03:53.673Z,12.83
2022-12-11T21:06:31.516Z,13.80
2022-12-11T21:09:05.627Z,14.47
2022-12-11T21:11:32.479Z,12.70
2022-12-11T21:13:59.193Z,13.90
2022-12-11T21:16:26.289Z,12.80
2022-12-11T21:18:54.442Z,12.73
2022-12-11T21:21:21.111Z,12.00
2022-12-11T21:23:48.247Z,12.77
2022-12-11T21:26:15.435Z,12.10
2022-12-11T21:28:42.238Z,13.43
2022-12-11T21:31:12.825Z,13.90
2022-12-11T21:33:39.709Z,13.03
2022-12-11T21:36:07.312Z,13.07
2022-12-11T21:38:34.266Z,13.57
2022-12-11T21:41:23.278Z,14.40
2022-12-11T21:44:56.682Z,13.90
2022-12-11T21:46:38.752Z,12.40
2022-12-11T21:49:05.693Z,14.43
2022-12-11T21:51:40.249Z,13.27
2022-12-11T21:54:13.490Z,14.43
2022-12-11T21:56:41.121Z,13.40
2022-12-11T21:59:08.701Z,14.77
2022-12-11T22:01:38.450Z,14.70
2022-12-11T22:04:05.455Z,14.80
2022-12-11T22:06:32.385Z,14.77
2022-12-11T22:08:59.049Z,13.57
2022-12-11T22:11:28.861Z,11.90
2022-12-11T22:13:56.042Z,13.70
2022-12-11T22:16:23.132Z,13.40
2022-12-11T22:18:49.786Z,14.70
2022-12-11T22:21:17.236Z,13.50
2022-12-11T22:23:44.601Z,14.43
2022-12-11T22:26:20.052Z,12.40
2022-12-11T22:28:47.123Z,14.10
2022-12-11T22:31:16.675Z,13.90
2022-12-11T22:33:43.679Z,14.50
2022-12-11T22:36:11.541Z,14.00
2022-12-11T22:38:38.219Z,14.73
2022-12-11T22:41:32.256Z,12.10
2022-12-11T22:43:59.897Z,13.60
2022-12-11T22:46:29.238Z,13.47
2022-12-11T22:48:57.055Z,13.97
2022-12-11T22:51:23.653Z,13.63
2022-12-11T22:53:50.766Z,13.80
2022-12-11T22:56:17.771Z,14.33
2022-12-11T22:58:44.418Z,12.07
2022-12-11T23:01:19.201Z,13.60
2022-12-11T23:03:46.171Z,12.83
2022-12-11T23:06:15.806Z,13.70
2022-12-11T23:08:42.737Z,12.43
2022-12-11T23:11:21.539Z,14.27
2022-12-11T23:13:48.344Z,13.10
2022-12-11T23:16:15.414Z,12.57
2022-12-11T23:18:42.180Z,11.93
2022-12-11T23:21:09.668Z,14.87
2022-12-11T23:23:37.282Z,13.87
2022-12-11T23:26:05.599Z,13.73
2022-12-11T23:28:32.247Z,11.67
2022-12-11T23:30:59.012Z,14.73
2022-12-11T23:33:25.724Z,15.07
2022-12-11T23:35:52.372Z,15.37
2022-12-11T23:38:18.978Z,14.63
2022-12-11T23:40:45.670Z,13.70
2022-12-11T23:43:12.333Z,13.80
2022-12-11T23:45:38.943Z,15.33
2022-12-11T23:48:05.546Z,13.57
2022-12-11T23:50:32.918Z,13.57
2022-12-11T23:52:59.557Z,14.17
2022-12-11T23:55:27.434Z,12.93
2022-12-11T23:57:54.109Z,12.77
